MSR021 HESH-HECA
Flight info
| Callsign | MSR021 |
|---|---|
| Flight time | 0h 45m |
| Altitude | 30000 |
| Route | SHM L677 CVO |
| Aircraft | A20N/M-SDE2E3FGHIRWXY/LB1 |
Departure
| Time | 2026-05-05 17:52 |
|---|---|
| Airport | Sharm El Sheikh International Airport (HESH) |
Arrival
| Time | 2026-05-05 18:38 |
|---|---|
| Airport | Cairo International Airport (HECA) |
| Time | Latitude | Longitude | Altitude | Speed | Heading |
|---|---|---|---|---|---|
| 2026-05-05 17:30 | 27.97319 | 34.38286 | 173 ft | 0 kts | 313° |
| 2026-05-05 17:43 | 27.97309 | 34.38299 | 172 ft | 2 kts | 313° |
| 2026-05-05 17:43 | 27.97298 | 34.38313 | 172 ft | 2 kts | 313° |
| 2026-05-05 17:44 | 27.97286 | 34.38327 | 172 ft | 2 kts | 313° |
| 2026-05-05 17:44 | 27.97274 | 34.38342 | 172 ft | 3 kts | 295° |
| 2026-05-05 17:44 | 27.97270 | 34.38361 | 172 ft | 3 kts | 258° |
| 2026-05-05 17:44 | 27.97274 | 34.38376 | 172 ft | 0 kts | 229° |
| 2026-05-05 17:48 | 27.97262 | 34.38368 | 172 ft | 6 kts | 208° |
| 2026-05-05 17:48 | 27.97229 | 34.38346 | 172 ft | 6 kts | 217° |
| 2026-05-05 17:48 | 27.97163 | 34.38280 | 172 ft | 11 kts | 224° |
| 2026-05-05 17:48 | 27.97109 | 34.38221 | 172 ft | 10 kts | 224° |
| 2026-05-05 17:49 | 27.97059 | 34.38170 | 172 ft | 9 kts | 222° |
| 2026-05-05 17:49 | 27.97015 | 34.38129 | 173 ft | 7 kts | 207° |
| 2026-05-05 17:49 | 27.96981 | 34.38132 | 174 ft | 4 kts | 153° |
| 2026-05-05 17:49 | 27.96954 | 34.38159 | 174 ft | 8 kts | 137° |
| 2026-05-05 17:50 | 27.96934 | 34.38181 | 174 ft | 0 kts | 129° |
| 2026-05-05 17:50 | 27.96934 | 34.38182 | 174 ft | 1 kts | 129° |
| 2026-05-05 17:50 | 27.96928 | 34.38189 | 174 ft | 2 kts | 129° |
| 2026-05-05 17:51 | 27.96912 | 34.38210 | 174 ft | 7 kts | 131° |
| 2026-05-05 17:51 | 27.96883 | 34.38264 | 173 ft | 8 kts | 98° |
| 2026-05-05 17:51 | 27.96903 | 34.38310 | 174 ft | 8 kts | 45° |
| 2026-05-05 17:51 | 27.96950 | 34.38359 | 174 ft | 23 kts | 43° |
| 2026-05-05 17:52 | 27.97291 | 34.38710 | 175 ft | 110 kts | 39° |
| 2026-05-05 17:52 | 27.98038 | 34.39491 | 225 ft | 175 kts | 41° |
| 2026-05-05 17:52 | 27.98951 | 34.40485 | 873 ft | 187 kts | 41° |
| 2026-05-05 17:52 | 27.99898 | 34.41562 | 1699 ft | 199 kts | 43° |
| 2026-05-05 17:53 | 28.00860 | 34.42746 | 2476 ft | 209 kts | 50° |
| 2026-05-05 17:53 | 28.01438 | 34.44285 | 3223 ft | 220 kts | 77° |
| 2026-05-05 17:53 | 28.01330 | 34.46051 | 3994 ft | 232 kts | 104° |
| 2026-05-05 17:53 | 28.00384 | 34.47585 | 4643 ft | 251 kts | 144° |
| 2026-05-05 17:54 | 27.98710 | 34.48222 | 5262 ft | 263 kts | 182° |
| 2026-05-05 17:54 | 27.96947 | 34.47625 | 5922 ft | 272 kts | 217° |
| 2026-05-05 17:54 | 27.95783 | 34.45965 | 6720 ft | 272 kts | 252° |
| 2026-05-05 17:54 | 27.95674 | 34.43884 | 7711 ft | 267 kts | 285° |
| 2026-05-05 17:55 | 27.96620 | 34.42105 | 8665 ft | 271 kts | 316° |
| 2026-05-05 17:55 | 27.98312 | 34.41091 | 9553 ft | 281 kts | 335° |
| 2026-05-05 17:55 | 28.00013 | 34.40069 | 10340 ft | 274 kts | 311° |
| 2026-05-05 17:55 | 28.01098 | 34.38338 | 11071 ft | 272 kts | 297° |
| 2026-05-05 17:56 | 28.02186 | 34.36548 | 11802 ft | 278 kts | 303° |
| 2026-05-05 17:56 | 28.03434 | 34.34797 | 12274 ft | 295 kts | 307° |
| 2026-05-05 17:56 | 28.04849 | 34.33018 | 12653 ft | 312 kts | 308° |
| 2026-05-05 17:56 | 28.06353 | 34.31161 | 12990 ft | 328 kts | 308° |
| 2026-05-05 17:57 | 28.07906 | 34.29202 | 13506 ft | 339 kts | 307° |
| 2026-05-05 17:57 | 28.09464 | 34.27178 | 14199 ft | 342 kts | 307° |
| 2026-05-05 17:57 | 28.11010 | 34.25116 | 14859 ft | 344 kts | 306° |
| 2026-05-05 17:57 | 28.12544 | 34.23033 | 15499 ft | 346 kts | 306° |
| 2026-05-05 17:58 | 28.13994 | 34.21045 | 16098 ft | 349 kts | 306° |
| 2026-05-05 17:58 | 28.15543 | 34.18910 | 16759 ft | 352 kts | 305° |
| 2026-05-05 17:58 | 28.17102 | 34.16759 | 17425 ft | 355 kts | 305° |
| 2026-05-05 17:58 | 28.18688 | 34.14577 | 18111 ft | 358 kts | 306° |
| 2026-05-05 17:59 | 28.20281 | 34.12391 | 18686 ft | 362 kts | 305° |
| 2026-05-05 17:59 | 28.21897 | 34.10176 | 19279 ft | 364 kts | 305° |
| 2026-05-05 17:59 | 28.23516 | 34.07953 | 19877 ft | 366 kts | 305° |
| 2026-05-05 17:59 | 28.25144 | 34.05715 | 20455 ft | 369 kts | 305° |
| 2026-05-05 18:00 | 28.26781 | 34.03466 | 21033 ft | 372 kts | 305° |
| 2026-05-05 18:00 | 28.28427 | 34.01203 | 21571 ft | 375 kts | 305° |
| 2026-05-05 18:00 | 28.30101 | 33.98903 | 22125 ft | 377 kts | 305° |
| 2026-05-05 18:00 | 28.31778 | 33.96596 | 22723 ft | 379 kts | 305° |
| 2026-05-05 18:01 | 28.33458 | 33.94278 | 23273 ft | 381 kts | 305° |
| 2026-05-05 18:01 | 28.35159 | 33.91930 | 23779 ft | 385 kts | 305° |
| 2026-05-05 18:01 | 28.36866 | 33.89573 | 24238 ft | 387 kts | 305° |
| 2026-05-05 18:01 | 28.38583 | 33.87199 | 24683 ft | 390 kts | 304° |
| 2026-05-05 18:02 | 28.40304 | 33.84819 | 25110 ft | 392 kts | 304° |
| 2026-05-05 18:02 | 28.42042 | 33.82417 | 25519 ft | 394 kts | 304° |
| 2026-05-05 18:02 | 28.43787 | 33.80005 | 25909 ft | 396 kts | 304° |
| 2026-05-05 18:02 | 28.45546 | 33.77575 | 26316 ft | 399 kts | 304° |
| 2026-05-05 18:03 | 28.47319 | 33.75125 | 26698 ft | 401 kts | 304° |
| 2026-05-05 18:03 | 28.49099 | 33.72663 | 27068 ft | 403 kts | 304° |
| 2026-05-05 18:03 | 28.50884 | 33.70191 | 27451 ft | 405 kts | 304° |
| 2026-05-05 18:03 | 28.52674 | 33.67710 | 27831 ft | 407 kts | 304° |
| 2026-05-05 18:04 | 28.54474 | 33.65207 | 28193 ft | 409 kts | 304° |
| 2026-05-05 18:04 | 28.56273 | 33.62689 | 28494 ft | 411 kts | 304° |
| 2026-05-05 18:04 | 28.58075 | 33.60159 | 28829 ft | 413 kts | 304° |
| 2026-05-05 18:04 | 28.59898 | 33.57596 | 29171 ft | 415 kts | 303° |
| 2026-05-05 18:05 | 28.61697 | 33.55063 | 29502 ft | 417 kts | 304° |
| 2026-05-05 18:05 | 28.63519 | 33.52498 | 29820 ft | 418 kts | 304° |
| 2026-05-05 18:05 | 28.65358 | 33.49910 | 30032 ft | 418 kts | 304° |
| 2026-05-05 18:05 | 28.67176 | 33.47360 | 30049 ft | 402 kts | 304° |
| 2026-05-05 18:06 | 28.68931 | 33.44898 | 30053 ft | 399 kts | 303° |
| 2026-05-05 18:06 | 28.72395 | 33.40007 | 30049 ft | 399 kts | 303° |
| 2026-05-05 18:07 | 28.75869 | 33.35078 | 30047 ft | 398 kts | 303° |
| 2026-05-05 18:07 | 28.79344 | 33.30150 | 30042 ft | 398 kts | 303° |
| 2026-05-05 18:08 | 28.82811 | 33.25225 | 30045 ft | 398 kts | 303° |
| 2026-05-05 18:08 | 28.86365 | 33.20188 | 30051 ft | 398 kts | 303° |
| 2026-05-05 18:09 | 28.89886 | 33.15200 | 30051 ft | 398 kts | 303° |
| 2026-05-05 18:09 | 28.92865 | 33.10964 | 30058 ft | 398 kts | 303° |
| 2026-05-05 18:10 | 28.96334 | 33.06020 | 30069 ft | 397 kts | 303° |
| 2026-05-05 18:10 | 28.99944 | 33.00870 | 30059 ft | 397 kts | 303° |
| 2026-05-05 18:11 | 29.03401 | 32.95938 | 30056 ft | 397 kts | 304° |
| 2026-05-05 18:11 | 29.06841 | 32.91019 | 30060 ft | 396 kts | 304° |
| 2026-05-05 18:12 | 29.10310 | 32.86054 | 30055 ft | 396 kts | 304° |
| 2026-05-05 18:12 | 29.13724 | 32.81163 | 30057 ft | 396 kts | 304° |
| 2026-05-05 18:13 | 29.17158 | 32.76242 | 30059 ft | 395 kts | 304° |
| 2026-05-05 18:13 | 29.20589 | 32.71322 | 30057 ft | 395 kts | 304° |
| 2026-05-05 18:14 | 29.24005 | 32.66403 | 30058 ft | 395 kts | 304° |
| 2026-05-05 18:14 | 29.27447 | 32.61451 | 30062 ft | 395 kts | 304° |
| 2026-05-05 18:15 | 29.30868 | 32.56505 | 30066 ft | 396 kts | 304° |
| 2026-05-05 18:15 | 29.32653 | 32.53903 | 29907 ft | 401 kts | 303° |
| 2026-05-05 18:15 | 29.34395 | 32.51359 | 29628 ft | 400 kts | 303° |
| 2026-05-05 18:15 | 29.36114 | 32.48851 | 29364 ft | 399 kts | 303° |
| 2026-05-05 18:16 | 29.37856 | 32.46310 | 29077 ft | 397 kts | 304° |
| 2026-05-05 18:16 | 29.39552 | 32.43835 | 28629 ft | 390 kts | 304° |
| 2026-05-05 18:16 | 29.41219 | 32.41408 | 28077 ft | 385 kts | 304° |
| 2026-05-05 18:16 | 29.42861 | 32.39014 | 27556 ft | 379 kts | 304° |
| 2026-05-05 18:17 | 29.44477 | 32.36654 | 27027 ft | 374 kts | 304° |
| 2026-05-05 18:17 | 29.46077 | 32.34310 | 26516 ft | 369 kts | 304° |
| 2026-05-05 18:17 | 29.47654 | 32.32003 | 26021 ft | 365 kts | 304° |
| 2026-05-05 18:17 | 29.49197 | 32.29749 | 25540 ft | 361 kts | 304° |
| 2026-05-05 18:18 | 29.50748 | 32.27482 | 25055 ft | 358 kts | 304° |
| 2026-05-05 18:18 | 29.52274 | 32.25245 | 24584 ft | 354 kts | 303° |
| 2026-05-05 18:18 | 29.53837 | 32.22951 | 24117 ft | 350 kts | 303° |
| 2026-05-05 18:18 | 29.55277 | 32.20837 | 23694 ft | 346 kts | 304° |
| 2026-05-05 18:19 | 29.56755 | 32.18669 | 23220 ft | 342 kts | 303° |
| 2026-05-05 18:19 | 29.58207 | 32.16537 | 22797 ft | 336 kts | 303° |
| 2026-05-05 18:19 | 29.59637 | 32.14433 | 22397 ft | 331 kts | 303° |
| 2026-05-05 18:19 | 29.61045 | 32.12359 | 21990 ft | 329 kts | 303° |
| 2026-05-05 18:20 | 29.62459 | 32.10273 | 21589 ft | 328 kts | 303° |
| 2026-05-05 18:20 | 29.63387 | 32.08905 | 21319 ft | 326 kts | 303° |
| 2026-05-05 18:20 | 29.65250 | 32.06160 | 20773 ft | 324 kts | 303° |
| 2026-05-05 18:20 | 29.66633 | 32.04121 | 20365 ft | 322 kts | 303° |
| 2026-05-05 18:21 | 29.67537 | 32.02788 | 20085 ft | 321 kts | 304° |
| 2026-05-05 18:21 | 29.69365 | 32.00091 | 19531 ft | 318 kts | 304° |
| 2026-05-05 18:21 | 29.70725 | 31.98084 | 19107 ft | 316 kts | 304° |
| 2026-05-05 18:21 | 29.72067 | 31.96102 | 18831 ft | 310 kts | 304° |
| 2026-05-05 18:22 | 29.73374 | 31.94175 | 18625 ft | 301 kts | 304° |
| 2026-05-05 18:22 | 29.74647 | 31.92299 | 18226 ft | 299 kts | 304° |
| 2026-05-05 18:22 | 29.75959 | 31.90359 | 17465 ft | 307 kts | 304° |
| 2026-05-05 18:22 | 29.77274 | 31.88413 | 16957 ft | 308 kts | 304° |
| 2026-05-05 18:23 | 29.78590 | 31.86467 | 16493 ft | 307 kts | 304° |
| 2026-05-05 18:23 | 29.79877 | 31.84511 | 16042 ft | 306 kts | 303° |
| 2026-05-05 18:23 | 29.80757 | 31.83141 | 15731 ft | 306 kts | 303° |
| 2026-05-05 18:23 | 29.82007 | 31.81174 | 15286 ft | 305 kts | 303° |
| 2026-05-05 18:24 | 29.83269 | 31.79186 | 14840 ft | 304 kts | 303° |
| 2026-05-05 18:24 | 29.84460 | 31.77318 | 14419 ft | 303 kts | 303° |
| 2026-05-05 18:24 | 29.85836 | 31.75168 | 13931 ft | 303 kts | 304° |
| 2026-05-05 18:24 | 29.86965 | 31.73405 | 13489 ft | 302 kts | 304° |
| 2026-05-05 18:25 | 29.88201 | 31.71473 | 13030 ft | 301 kts | 304° |
| 2026-05-05 18:25 | 29.89021 | 31.70192 | 12727 ft | 300 kts | 304° |
| 2026-05-05 18:25 | 29.90672 | 31.67607 | 12136 ft | 298 kts | 304° |
| 2026-05-05 18:25 | 29.91895 | 31.65686 | 11670 ft | 297 kts | 303° |
| 2026-05-05 18:26 | 29.92868 | 31.63608 | 11241 ft | 293 kts | 293° |
| 2026-05-05 18:26 | 29.93675 | 31.61458 | 10812 ft | 292 kts | 291° |
| 2026-05-05 18:26 | 29.94430 | 31.59288 | 10410 ft | 290 kts | 290° |
| 2026-05-05 18:26 | 29.95155 | 31.57167 | 10226 ft | 280 kts | 290° |
| 2026-05-05 18:27 | 29.95887 | 31.55043 | 10150 ft | 276 kts | 291° |
| 2026-05-05 18:27 | 29.96606 | 31.52985 | 10092 ft | 276 kts | 291° |
| 2026-05-05 18:27 | 29.97331 | 31.50930 | 9789 ft | 279 kts | 291° |
| 2026-05-05 18:27 | 29.98067 | 31.48864 | 9303 ft | 279 kts | 291° |
| 2026-05-05 18:28 | 29.99548 | 31.44729 | 8452 ft | 275 kts | 291° |
| 2026-05-05 18:28 | 30.00292 | 31.42655 | 8014 ft | 274 kts | 291° |
| 2026-05-05 18:28 | 30.01057 | 31.40512 | 7525 ft | 273 kts | 292° |
| 2026-05-05 18:29 | 30.01778 | 31.38494 | 7106 ft | 272 kts | 292° |
| 2026-05-05 18:29 | 30.02464 | 31.36566 | 6665 ft | 272 kts | 292° |
| 2026-05-05 18:29 | 30.03181 | 31.34553 | 6194 ft | 272 kts | 292° |
| 2026-05-05 18:29 | 30.03680 | 31.33155 | 5875 ft | 271 kts | 293° |
| 2026-05-05 18:30 | 30.04369 | 31.30920 | 5406 ft | 268 kts | 280° |
| 2026-05-05 18:30 | 30.04257 | 31.28785 | 4782 ft | 277 kts | 252° |
| 2026-05-05 18:30 | 30.03379 | 31.26824 | 4427 ft | 272 kts | 243° |
| 2026-05-05 18:30 | 30.02428 | 31.24883 | 4280 ft | 257 kts | 243° |
| 2026-05-05 18:31 | 30.01475 | 31.22914 | 4189 ft | 239 kts | 243° |
| 2026-05-05 18:31 | 30.00518 | 31.21583 | 4155 ft | 229 kts | 215° |
| 2026-05-05 18:31 | 29.99071 | 31.21119 | 4129 ft | 216 kts | 175° |
| 2026-05-05 18:31 | 29.97744 | 31.21723 | 4089 ft | 198 kts | 138° |
| 2026-05-05 18:32 | 29.97003 | 31.22939 | 4033 ft | 177 kts | 104° |
| 2026-05-05 18:32 | 29.96903 | 31.24302 | 3975 ft | 155 kts | 72° |
| 2026-05-05 18:32 | 29.97284 | 31.25375 | 3950 ft | 147 kts | 47° |
| 2026-05-05 18:32 | 29.97943 | 31.26265 | 3865 ft | 145 kts | 44° |
| 2026-05-05 18:33 | 29.98599 | 31.27135 | 3726 ft | 144 kts | 42° |
| 2026-05-05 18:33 | 29.99260 | 31.28010 | 3548 ft | 144 kts | 43° |
| 2026-05-05 18:33 | 29.99917 | 31.28883 | 3371 ft | 143 kts | 43° |
| 2026-05-05 18:33 | 30.00568 | 31.29747 | 3180 ft | 142 kts | 44° |
| 2026-05-05 18:34 | 30.01218 | 31.30610 | 2991 ft | 142 kts | 43° |
| 2026-05-05 18:34 | 30.01948 | 31.31579 | 2781 ft | 141 kts | 42° |
| 2026-05-05 18:34 | 30.02552 | 31.32381 | 2610 ft | 139 kts | 43° |
| 2026-05-05 18:34 | 30.03245 | 31.33302 | 2397 ft | 138 kts | 42° |
| 2026-05-05 18:35 | 30.03808 | 31.34050 | 2232 ft | 137 kts | 43° |
| 2026-05-05 18:35 | 30.04450 | 31.34903 | 2043 ft | 137 kts | 43° |
| 2026-05-05 18:35 | 30.05085 | 31.35746 | 1856 ft | 137 kts | 43° |
| 2026-05-05 18:35 | 30.05578 | 31.36402 | 1708 ft | 137 kts | 42° |
| 2026-05-05 18:36 | 30.06287 | 31.37344 | 1498 ft | 136 kts | 43° |
| 2026-05-05 18:36 | 30.06743 | 31.37951 | 1366 ft | 136 kts | 42° |
| 2026-05-05 18:36 | 30.07607 | 31.39099 | 1111 ft | 137 kts | 43° |
| 2026-05-05 18:36 | 30.08028 | 31.39659 | 993 ft | 136 kts | 44° |
| 2026-05-05 18:37 | 30.08651 | 31.40488 | 818 ft | 136 kts | 45° |
| 2026-05-05 18:37 | 30.09336 | 31.41400 | 626 ft | 135 kts | 44° |
| 2026-05-05 18:37 | 30.09904 | 31.42155 | 455 ft | 136 kts | 44° |
| 2026-05-05 18:37 | 30.10483 | 31.42940 | 376 ft | 115 kts | 49° |
| 2026-05-05 18:38 | 30.10851 | 31.43419 | 374 ft | 37 kts | 43° |
| 2026-05-05 18:38 | 30.10916 | 31.43466 | 375 ft | 13 kts | 26° |
| 2026-05-05 18:38 | 30.11000 | 31.43522 | 375 ft | 15 kts | 26° |
| 2026-05-05 18:38 | 30.11098 | 31.43575 | 375 ft | 16 kts | 25° |
| 2026-05-05 18:39 | 30.11179 | 31.43600 | 374 ft | 5 kts | 347° |
| 2026-05-05 18:39 | 30.11206 | 31.43587 | 375 ft | 5 kts | 328° |
| 2026-05-05 18:39 | 30.11243 | 31.43558 | 375 ft | 8 kts | 326° |
| 2026-05-05 18:39 | 30.11256 | 31.43521 | 375 ft | 1 kts | 270° |
| 2026-05-05 18:40 | 30.11255 | 31.43512 | 375 ft | 3 kts | 259° |
| 2026-05-05 18:40 | 30.11243 | 31.43448 | 375 ft | 9 kts | 276° |
| 2026-05-05 18:40 | 30.11275 | 31.43395 | 375 ft | 9 kts | 316° |
| 2026-05-05 18:40 | 30.11330 | 31.43341 | 375 ft | 11 kts | 319° |
| 2026-05-05 18:41 | 30.11397 | 31.43274 | 375 ft | 14 kts | 319° |
| 2026-05-05 18:41 | 30.11476 | 31.43195 | 375 ft | 16 kts | 319° |
| 2026-05-05 18:41 | 30.11566 | 31.43107 | 375 ft | 18 kts | 320° |
| 2026-05-05 18:41 | 30.11661 | 31.43012 | 375 ft | 17 kts | 320° |
| 2026-05-05 18:42 | 30.11743 | 31.42930 | 375 ft | 16 kts | 320° |
| 2026-05-05 18:42 | 30.11836 | 31.42838 | 375 ft | 18 kts | 318° |
| 2026-05-05 18:42 | 30.11924 | 31.42751 | 375 ft | 17 kts | 319° |
| 2026-05-05 18:42 | 30.12013 | 31.42663 | 375 ft | 15 kts | 320° |
| 2026-05-05 18:43 | 30.12097 | 31.42579 | 375 ft | 13 kts | 319° |
| 2026-05-05 18:43 | 30.12168 | 31.42508 | 375 ft | 13 kts | 319° |
| 2026-05-05 18:43 | 30.12196 | 31.42409 | 375 ft | 14 kts | 252° |
| 2026-05-05 18:43 | 30.12141 | 31.42322 | 375 ft | 13 kts | 229° |
| 2026-05-05 18:44 | 30.12086 | 31.42248 | 375 ft | 12 kts | 229° |
| 2026-05-05 18:44 | 30.12035 | 31.42178 | 375 ft | 11 kts | 229° |
| 2026-05-05 18:44 | 30.11986 | 31.42113 | 375 ft | 10 kts | 228° |
| 2026-05-05 18:44 | 30.11958 | 31.42077 | 375 ft | 10 kts | 228° |
| 2026-05-05 18:45 | 30.11909 | 31.42013 | 375 ft | 9 kts | 229° |
| 2026-05-05 18:45 | 30.11856 | 31.41943 | 375 ft | 8 kts | 229° |
| 2026-05-05 18:45 | 30.11821 | 31.41896 | 375 ft | 7 kts | 229° |
| 2026-05-05 18:45 | 30.11789 | 31.41854 | 375 ft | 7 kts | 229° |
| 2026-05-05 18:46 | 30.11769 | 31.41827 | 375 ft | 6 kts | 229° |
| 2026-05-05 18:46 | 30.11732 | 31.41776 | 375 ft | 15 kts | 229° |
| 2026-05-05 18:46 | 30.11647 | 31.41659 | 375 ft | 15 kts | 230° |
| 2026-05-05 18:46 | 30.11581 | 31.41567 | 375 ft | 14 kts | 230° |
| 2026-05-05 18:47 | 30.11517 | 31.41485 | 375 ft | 13 kts | 227° |
| 2026-05-05 18:47 | 30.11459 | 31.41409 | 375 ft | 12 kts | 229° |
| 2026-05-05 18:47 | 30.11404 | 31.41337 | 375 ft | 11 kts | 229° |
| 2026-05-05 18:47 | 30.11354 | 31.41270 | 375 ft | 11 kts | 229° |
| 2026-05-05 18:48 | 30.11307 | 31.41208 | 375 ft | 10 kts | 229° |
| 2026-05-05 18:48 | 30.11265 | 31.41151 | 375 ft | 9 kts | 229° |
| 2026-05-05 18:48 | 30.11224 | 31.41097 | 375 ft | 9 kts | 229° |
| 2026-05-05 18:48 | 30.11186 | 31.41046 | 375 ft | 9 kts | 229° |
| 2026-05-05 18:49 | 30.11148 | 31.40995 | 375 ft | 8 kts | 229° |
| 2026-05-05 18:49 | 30.11112 | 31.40947 | 375 ft | 8 kts | 229° |
| 2026-05-05 18:49 | 30.11079 | 31.40902 | 375 ft | 7 kts | 229° |
| 2026-05-05 18:49 | 30.11042 | 31.40852 | 375 ft | 10 kts | 229° |
| 2026-05-05 18:50 | 30.10959 | 31.40747 | 375 ft | 15 kts | 228° |
| 2026-05-05 18:50 | 30.10894 | 31.40661 | 375 ft | 14 kts | 228° |
| 2026-05-05 18:50 | 30.10834 | 31.40579 | 374 ft | 13 kts | 230° |
| 2026-05-05 18:50 | 30.10777 | 31.40504 | 374 ft | 12 kts | 229° |
| 2026-05-05 18:51 | 30.10722 | 31.40430 | 374 ft | 14 kts | 229° |
| 2026-05-05 18:51 | 30.10686 | 31.40338 | 374 ft | 12 kts | 283° |
| 2026-05-05 18:51 | 30.10695 | 31.40248 | 374 ft | 11 kts | 249° |
| 2026-05-05 18:51 | 30.10651 | 31.40178 | 374 ft | 10 kts | 229° |
| 2026-05-05 18:52 | 30.10606 | 31.40117 | 374 ft | 10 kts | 229° |
| 2026-05-05 18:52 | 30.10563 | 31.40061 | 374 ft | 9 kts | 229° |
| 2026-05-05 18:52 | 30.10524 | 31.40008 | 374 ft | 8 kts | 229° |
| 2026-05-05 18:52 | 30.10492 | 31.39957 | 374 ft | 8 kts | 246° |
| 2026-05-05 18:53 | 30.10501 | 31.39874 | 374 ft | 14 kts | 307° |
| 2026-05-05 18:53 | 30.10597 | 31.39837 | 374 ft | 16 kts | 344° |
| 2026-05-05 18:53 | 30.10707 | 31.39805 | 374 ft | 18 kts | 345° |
| 2026-05-05 18:53 | 30.10825 | 31.39769 | 374 ft | 17 kts | 345° |
| 2026-05-05 18:54 | 30.10920 | 31.39740 | 374 ft | 9 kts | 345° |
| 2026-05-05 18:54 | 30.10947 | 31.39690 | 374 ft | 5 kts | 261° |
| 2026-05-05 18:54 | 30.10940 | 31.39651 | 374 ft | 5 kts | 255° |
| 2026-05-05 18:54 | 30.10935 | 31.39631 | 374 ft | 0 kts | 253° |